THA12VJ VTBS-VTSP
Flight info
| Callsign | THA12VJ |
|---|---|
| Flight time | N/A |
| Altitude | 38000 |
| Route | VANKO1F VANKO Y8 SAVSA SAVSA1C |
| Aircraft | A20N/M-SDE2E3FGHIRWXY/LB1 |
Departure
| Time | 2026-05-05 23:02 |
|---|---|
| Airport | Suvarnabhumi Airport (VTBS) |
Arrival
| Time | N/A |
|---|---|
| Airport | Phuket International Airport (VTSP) |
| Time | Latitude | Longitude | Altitude | Speed | Heading |
|---|---|---|---|---|---|
| 2026-05-05 22:47 | 13.68640 | 100.75373 | 8 ft | 0 kts | 284° |
| 2026-05-05 22:49 | 13.68637 | 100.75384 | 8 ft | 2 kts | 284° |
| 2026-05-05 22:49 | 13.68634 | 100.75398 | 8 ft | 2 kts | 285° |
| 2026-05-05 22:49 | 13.68631 | 100.75407 | 8 ft | 2 kts | 283° |
| 2026-05-05 22:50 | 13.68630 | 100.75423 | 8 ft | 2 kts | 265° |
| 2026-05-05 22:50 | 13.68633 | 100.75437 | 8 ft | 2 kts | 252° |
| 2026-05-05 22:50 | 13.68638 | 100.75452 | 8 ft | 2 kts | 238° |
| 2026-05-05 22:50 | 13.68648 | 100.75464 | 8 ft | 2 kts | 225° |
| 2026-05-05 22:51 | 13.68659 | 100.75474 | 8 ft | 2 kts | 211° |
| 2026-05-05 22:51 | 13.68672 | 100.75480 | 8 ft | 1 kts | 198° |
| 2026-05-05 22:51 | 13.68679 | 100.75481 | 8 ft | 1 kts | 192° |
| 2026-05-05 22:51 | 13.68681 | 100.75482 | 8 ft | 0 kts | 193° |
| 2026-05-05 22:53 | 13.68680 | 100.75482 | 8 ft | 0 kts | 193° |
| 2026-05-05 22:53 | 13.68676 | 100.75481 | 8 ft | 1 kts | 193° |
| 2026-05-05 22:53 | 13.68663 | 100.75478 | 8 ft | 2 kts | 193° |
| 2026-05-05 22:53 | 13.68640 | 100.75472 | 8 ft | 4 kts | 194° |
| 2026-05-05 22:54 | 13.68605 | 100.75463 | 8 ft | 6 kts | 194° |
| 2026-05-05 22:54 | 13.68559 | 100.75452 | 8 ft | 7 kts | 193° |
| 2026-05-05 22:54 | 13.68500 | 100.75437 | 8 ft | 9 kts | 194° |
| 2026-05-05 22:54 | 13.68430 | 100.75420 | 8 ft | 11 kts | 183° |
| 2026-05-05 22:55 | 13.68370 | 100.75465 | 8 ft | 12 kts | 112° |
| 2026-05-05 22:55 | 13.68346 | 100.75554 | 8 ft | 13 kts | 104° |
| 2026-05-05 22:55 | 13.68325 | 100.75638 | 8 ft | 9 kts | 107° |
| 2026-05-05 22:55 | 13.68282 | 100.75684 | 8 ft | 9 kts | 169° |
| 2026-05-05 22:56 | 13.68210 | 100.75671 | 8 ft | 11 kts | 194° |
| 2026-05-05 22:56 | 13.68127 | 100.75651 | 8 ft | 13 kts | 193° |
| 2026-05-05 22:56 | 13.68032 | 100.75627 | 8 ft | 14 kts | 194° |
| 2026-05-05 22:56 | 13.67928 | 100.75599 | 8 ft | 16 kts | 194° |
| 2026-05-05 22:57 | 13.67816 | 100.75569 | 8 ft | 17 kts | 195° |
| 2026-05-05 22:57 | 13.67689 | 100.75535 | 8 ft | 20 kts | 194° |
| 2026-05-05 22:57 | 13.67534 | 100.75494 | 8 ft | 24 kts | 194° |
| 2026-05-05 22:57 | 13.67362 | 100.75449 | 8 ft | 26 kts | 194° |
| 2026-05-05 22:58 | 13.67171 | 100.75399 | 8 ft | 28 kts | 193° |
| 2026-05-05 22:58 | 13.66983 | 100.75350 | 8 ft | 27 kts | 194° |
| 2026-05-05 22:58 | 13.66803 | 100.75304 | 8 ft | 25 kts | 195° |
| 2026-05-05 22:58 | 13.66635 | 100.75260 | 8 ft | 24 kts | 194° |
| 2026-05-05 22:59 | 13.66472 | 100.75216 | 8 ft | 23 kts | 194° |
| 2026-05-05 22:59 | 13.66318 | 100.75176 | 8 ft | 22 kts | 195° |
| 2026-05-05 22:59 | 13.66167 | 100.75137 | 8 ft | 21 kts | 194° |
| 2026-05-05 22:59 | 13.66022 | 100.75098 | 8 ft | 21 kts | 194° |
| 2026-05-05 23:00 | 13.65820 | 100.75085 | 8 ft | 8 kts | 123° |
| 2026-05-05 23:00 | 13.65801 | 100.75145 | 8 ft | 9 kts | 105° |
| 2026-05-05 23:00 | 13.65804 | 100.75208 | 8 ft | 9 kts | 45° |
| 2026-05-05 23:01 | 13.65908 | 100.75246 | 8 ft | 37 kts | 15° |
| 2026-05-05 23:01 | 13.66403 | 100.75377 | 9 ft | 106 kts | 14° |
| 2026-05-05 23:01 | 13.67303 | 100.75610 | 9 ft | 160 kts | 15° |
| 2026-05-05 23:01 | 13.68465 | 100.75916 | 317 ft | 179 kts | 15° |
| 2026-05-05 23:02 | 13.69702 | 100.76260 | 885 ft | 184 kts | 17° |
| 2026-05-05 23:02 | 13.70765 | 100.76910 | 1552 ft | 182 kts | 49° |
| 2026-05-05 23:02 | 13.71516 | 100.77936 | 2248 ft | 180 kts | 55° |
| 2026-05-05 23:02 | 13.72243 | 100.79001 | 2841 ft | 184 kts | 51° |
| 2026-05-05 23:03 | 13.73269 | 100.79741 | 3462 ft | 188 kts | 15° |
| 2026-05-05 23:03 | 13.74586 | 100.79730 | 4103 ft | 192 kts | 350° |
| 2026-05-05 23:03 | 13.75924 | 100.79533 | 4589 ft | 202 kts | 1° |
| 2026-05-05 23:03 | 13.77355 | 100.79565 | 5147 ft | 209 kts | 1° |
| 2026-05-05 23:04 | 13.78784 | 100.79296 | 5792 ft | 214 kts | 337° |
| 2026-05-05 23:04 | 13.80025 | 100.78331 | 6182 ft | 235 kts | 313° |
| 2026-05-05 23:04 | 13.81065 | 100.76971 | 6735 ft | 248 kts | 305° |
| 2026-05-05 23:04 | 13.82107 | 100.75500 | 7207 ft | 264 kts | 315° |
| 2026-05-05 23:05 | 13.83542 | 100.74258 | 7674 ft | 278 kts | 325° |
| 2026-05-05 23:05 | 13.85123 | 100.73054 | 8273 ft | 288 kts | 324° |
| 2026-05-05 23:05 | 13.86741 | 100.71796 | 8922 ft | 295 kts | 323° |
| 2026-05-05 23:05 | 13.88350 | 100.70512 | 9716 ft | 294 kts | 323° |
| 2026-05-05 23:06 | 13.89951 | 100.69186 | 10466 ft | 295 kts | 321° |
| 2026-05-05 23:06 | 13.91565 | 100.67786 | 10885 ft | 309 kts | 320° |
| 2026-05-05 23:06 | 13.93240 | 100.66312 | 11181 ft | 327 kts | 320° |
| 2026-05-05 23:06 | 13.95026 | 100.64751 | 11473 ft | 343 kts | 320° |
| 2026-05-05 23:07 | 13.96857 | 100.63161 | 11934 ft | 352 kts | 320° |
| 2026-05-05 23:07 | 13.98745 | 100.61528 | 12581 ft | 355 kts | 320° |
| 2026-05-05 23:07 | 14.00660 | 100.59875 | 13226 ft | 358 kts | 320° |
| 2026-05-05 23:07 | 14.02557 | 100.58237 | 13818 ft | 361 kts | 320° |
| 2026-05-05 23:08 | 14.04508 | 100.56556 | 14400 ft | 365 kts | 321° |
| 2026-05-05 23:08 | 14.06454 | 100.54881 | 14966 ft | 368 kts | 321° |
| 2026-05-05 23:08 | 14.08249 | 100.53032 | 15482 ft | 373 kts | 307° |
| 2026-05-05 23:08 | 14.09478 | 100.50648 | 16014 ft | 377 kts | 289° |
| 2026-05-05 23:09 | 14.10037 | 100.48032 | 16552 ft | 380 kts | 279° |
| 2026-05-05 23:09 | 14.10413 | 100.45312 | 17052 ft | 384 kts | 278° |
| 2026-05-05 23:09 | 14.10785 | 100.42574 | 17523 ft | 388 kts | 279° |
| 2026-05-05 23:09 | 14.11175 | 100.39830 | 18009 ft | 391 kts | 278° |
| 2026-05-05 23:10 | 14.11186 | 100.37022 | 18462 ft | 394 kts | 261° |
| 2026-05-05 23:10 | 14.10314 | 100.34370 | 18925 ft | 397 kts | 240° |
| 2026-05-05 23:10 | 14.08596 | 100.32152 | 19369 ft | 399 kts | 220° |
| 2026-05-05 23:10 | 14.06240 | 100.30681 | 19804 ft | 401 kts | 200° |
| 2026-05-05 23:11 | 14.03555 | 100.29823 | 20285 ft | 402 kts | 195° |
| 2026-05-05 23:11 | 14.00864 | 100.29024 | 20703 ft | 405 kts | 196° |
| 2026-05-05 23:11 | 13.98149 | 100.28210 | 21127 ft | 408 kts | 196° |
| 2026-05-05 23:11 | 13.95421 | 100.27385 | 21552 ft | 411 kts | 196° |
| 2026-05-05 23:12 | 13.92654 | 100.26540 | 21970 ft | 414 kts | 196° |
| 2026-05-05 23:12 | 13.89868 | 100.25686 | 22398 ft | 416 kts | 196° |
| 2026-05-05 23:12 | 13.87104 | 100.24837 | 22817 ft | 418 kts | 196° |
| 2026-05-05 23:12 | 13.84312 | 100.23977 | 23228 ft | 421 kts | 197° |
| 2026-05-05 23:13 | 13.81455 | 100.23096 | 23626 ft | 424 kts | 197° |
| 2026-05-05 23:13 | 13.78644 | 100.22229 | 24013 ft | 426 kts | 197° |
| 2026-05-05 23:13 | 13.75791 | 100.21349 | 24392 ft | 429 kts | 197° |
| 2026-05-05 23:13 | 13.72897 | 100.20455 | 24777 ft | 432 kts | 197° |
| 2026-05-05 23:14 | 13.70022 | 100.19569 | 25156 ft | 434 kts | 197° |
| 2026-05-05 23:14 | 13.67099 | 100.18667 | 25523 ft | 436 kts | 197° |
| 2026-05-05 23:14 | 13.64198 | 100.17773 | 25864 ft | 439 kts | 197° |
| 2026-05-05 23:14 | 13.61235 | 100.16860 | 26217 ft | 441 kts | 197° |
| 2026-05-05 23:15 | 13.58313 | 100.15960 | 26551 ft | 444 kts | 197° |
| 2026-05-05 23:15 | 13.55332 | 100.15041 | 26895 ft | 446 kts | 197° |
| 2026-05-05 23:15 | 13.53486 | 100.14473 | 27106 ft | 447 kts | 197° |
| 2026-05-05 23:15 | 13.51274 | 100.13791 | 27346 ft | 448 kts | 197° |
| 2026-05-05 23:16 | 13.48291 | 100.12872 | 27658 ft | 451 kts | 197° |
| 2026-05-05 23:16 | 13.45259 | 100.11938 | 27964 ft | 453 kts | 197° |
| 2026-05-05 23:16 | 13.42217 | 100.11002 | 28255 ft | 455 kts | 197° |
| 2026-05-05 23:16 | 13.39192 | 100.10072 | 28528 ft | 457 kts | 197° |
| 2026-05-05 23:17 | 13.36144 | 100.09134 | 28795 ft | 459 kts | 197° |
| 2026-05-05 23:17 | 13.33054 | 100.08184 | 29063 ft | 461 kts | 197° |
| 2026-05-05 23:17 | 13.29973 | 100.07237 | 29407 ft | 461 kts | 197° |
| 2026-05-05 23:17 | 13.26882 | 100.06287 | 29800 ft | 460 kts | 197° |
| 2026-05-05 23:18 | 13.23826 | 100.05348 | 30202 ft | 458 kts | 197° |
| 2026-05-05 23:18 | 13.20763 | 100.04408 | 30575 ft | 457 kts | 197° |
| 2026-05-05 23:18 | 13.17748 | 100.03481 | 30932 ft | 456 kts | 197° |
| 2026-05-05 23:18 | 13.14689 | 100.02542 | 31273 ft | 455 kts | 197° |
| 2026-05-05 23:19 | 13.11679 | 100.01618 | 31591 ft | 455 kts | 197° |
| 2026-05-05 23:19 | 13.08620 | 100.00680 | 31927 ft | 454 kts | 197° |
| 2026-05-05 23:19 | 13.05614 | 99.99757 | 32257 ft | 453 kts | 197° |
| 2026-05-05 23:19 | 13.02562 | 99.98820 | 32592 ft | 452 kts | 197° |
| 2026-05-05 23:20 | 12.99578 | 99.97906 | 32952 ft | 451 kts | 197° |
| 2026-05-05 23:20 | 12.96540 | 99.96973 | 33329 ft | 450 kts | 197° |
| 2026-05-05 23:20 | 12.93559 | 99.96060 | 33709 ft | 449 kts | 197° |
| 2026-05-05 23:20 | 12.90555 | 99.95139 | 34084 ft | 447 kts | 197° |
| 2026-05-05 23:21 | 12.87591 | 99.94232 | 34446 ft | 446 kts | 197° |
| 2026-05-05 23:21 | 12.84602 | 99.93317 | 34800 ft | 445 kts | 197° |
| 2026-05-05 23:21 | 12.81619 | 99.92403 | 35136 ft | 443 kts | 197° |
| 2026-05-05 23:21 | 12.78683 | 99.91505 | 35452 ft | 442 kts | 197° |
| 2026-05-05 23:22 | 12.75720 | 99.90597 | 35740 ft | 442 kts | 197° |
| 2026-05-05 23:22 | 12.72788 | 99.89700 | 35839 ft | 445 kts | 197° |
| 2026-05-05 23:22 | 12.66806 | 99.87870 | 35843 ft | 448 kts | 197° |
| 2026-05-05 23:23 | 12.60803 | 99.86035 | 35849 ft | 448 kts | 197° |
| 2026-05-05 23:23 | 12.54819 | 99.84206 | 35855 ft | 448 kts | 197° |
| 2026-05-05 23:24 | 12.48831 | 99.82379 | 35856 ft | 448 kts | 197° |
| 2026-05-05 23:24 | 12.42840 | 99.80550 | 35860 ft | 448 kts | 197° |
| 2026-05-05 23:25 | 12.36857 | 99.78725 | 35861 ft | 448 kts | 197° |
| 2026-05-05 23:25 | 12.30876 | 99.76901 | 35866 ft | 448 kts | 197° |
| 2026-05-05 23:26 | 12.24890 | 99.75075 | 35864 ft | 448 kts | 197° |
| 2026-05-05 23:26 | 12.18922 | 99.73257 | 35865 ft | 448 kts | 197° |
| 2026-05-05 23:27 | 12.12936 | 99.71434 | 35874 ft | 448 kts | 197° |
| 2026-05-05 23:27 | 12.06924 | 99.69604 | 35879 ft | 448 kts | 197° |
| 2026-05-05 23:28 | 12.00947 | 99.67786 | 35881 ft | 447 kts | 197° |
| 2026-05-05 23:28 | 11.94988 | 99.65974 | 35881 ft | 447 kts | 197° |
| 2026-05-05 23:29 | 11.89015 | 99.64159 | 35881 ft | 447 kts | 197° |
| 2026-05-05 23:29 | 11.83039 | 99.62342 | 35880 ft | 447 kts | 197° |
| 2026-05-05 23:30 | 11.77067 | 99.60528 | 35879 ft | 447 kts | 197° |
| 2026-05-05 23:30 | 11.71098 | 99.58716 | 35876 ft | 447 kts | 197° |
| 2026-05-05 23:31 | 11.65101 | 99.56896 | 35875 ft | 447 kts | 197° |
| 2026-05-05 23:31 | 11.59139 | 99.55089 | 35869 ft | 447 kts | 197° |
| 2026-05-05 23:32 | 11.53164 | 99.53278 | 35866 ft | 447 kts | 197° |
| 2026-05-05 23:32 | 11.47203 | 99.51472 | 35859 ft | 447 kts | 197° |
| 2026-05-05 23:33 | 11.41204 | 99.49654 | 35854 ft | 447 kts | 197° |
| 2026-05-05 23:33 | 11.35226 | 99.47845 | 35852 ft | 447 kts | 197° |
| 2026-05-05 23:34 | 11.29249 | 99.46036 | 35854 ft | 447 kts | 197° |
| 2026-05-05 23:34 | 11.23303 | 99.44238 | 35856 ft | 447 kts | 197° |
| 2026-05-05 23:35 | 11.17305 | 99.42425 | 35857 ft | 447 kts | 197° |
| 2026-05-05 23:35 | 11.11337 | 99.40622 | 35859 ft | 447 kts | 197° |
| 2026-05-05 23:36 | 11.05378 | 99.38822 | 35856 ft | 446 kts | 197° |
| 2026-05-05 23:36 | 10.99412 | 99.37020 | 35860 ft | 446 kts | 197° |
| 2026-05-05 23:37 | 10.93451 | 99.35221 | 35858 ft | 446 kts | 197° |
| 2026-05-05 23:37 | 10.87496 | 99.33424 | 35865 ft | 446 kts | 196° |
| 2026-05-05 23:38 | 10.81527 | 99.31625 | 35869 ft | 446 kts | 196° |
| 2026-05-05 23:38 | 10.75565 | 99.29827 | 35865 ft | 446 kts | 196° |
| 2026-05-05 23:39 | 10.69614 | 99.28034 | 35861 ft | 446 kts | 196° |
| 2026-05-05 23:39 | 10.63639 | 99.26234 | 35863 ft | 446 kts | 196° |
| 2026-05-05 23:40 | 10.57667 | 99.24436 | 35865 ft | 446 kts | 196° |
| 2026-05-05 23:40 | 10.51743 | 99.22654 | 35866 ft | 446 kts | 196° |
| 2026-05-05 23:41 | 10.45745 | 99.20850 | 35869 ft | 446 kts | 196° |
| 2026-05-05 23:41 | 10.39790 | 99.19058 | 35868 ft | 446 kts | 196° |
| 2026-05-05 23:42 | 10.33832 | 99.17268 | 35868 ft | 446 kts | 196° |
| 2026-05-05 23:42 | 10.30842 | 99.16369 | 35863 ft | 446 kts | 196° |